createdAt,value
2018-08-10T00:01:00.133Z,14.54
2018-08-10T00:03:34.917Z,14.52
2018-08-10T00:06:09.413Z,14.57
2018-08-10T00:08:44.168Z,14.52
2018-08-10T00:11:18.692Z,14.60
2018-08-10T00:13:53.232Z,14.55
2018-08-10T00:16:28.080Z,14.57
2018-08-10T00:19:02.695Z,14.57
2018-08-10T00:21:37.173Z,14.57
2018-08-10T00:24:11.751Z,14.52
2018-08-10T00:26:46.301Z,14.52
2018-08-10T00:29:20.892Z,14.53
2018-08-10T00:31:55.469Z,14.53
2018-08-10T00:34:30.114Z,14.58
2018-08-10T00:37:04.685Z,14.59
2018-08-10T00:39:39.131Z,14.58
2018-08-10T00:42:13.528Z,14.63
2018-08-10T00:44:48.268Z,14.58
2018-08-10T00:47:22.640Z,14.55
2018-08-10T00:49:57.055Z,14.56
2018-08-10T00:52:31.603Z,14.50
2018-08-10T00:55:08.160Z,14.49
2018-08-10T00:57:43.168Z,14.47
2018-08-10T01:00:20.314Z,14.51
2018-08-10T01:02:54.669Z,14.58
2018-08-10T01:05:29.079Z,14.53
2018-08-10T01:08:03.433Z,14.56
2018-08-10T01:10:38.086Z,14.56
2018-08-10T01:13:12.965Z,14.58
2018-08-10T01:15:47.489Z,14.58
2018-08-10T01:18:22.068Z,14.53
2018-08-10T01:20:56.725Z,14.52
2018-08-10T01:26:49.377Z,14.47
2018-08-10T01:29:37.147Z,14.45
2018-08-10T01:32:11.561Z,14.43
2018-08-10T01:34:46.013Z,14.38
2018-08-10T01:37:20.553Z,14.31
2018-08-10T01:39:55.428Z,14.35
2018-08-10T01:42:29.888Z,14.30
2018-08-10T01:45:05.297Z,14.34
2018-08-10T01:47:39.732Z,14.36
2018-08-10T01:50:14.193Z,14.28
2018-08-10T01:52:48.774Z,14.33
2018-08-10T01:55:23.333Z,14.22
2018-08-10T01:57:58.021Z,14.13
2018-08-10T02:00:32.501Z,14.16
2018-08-10T02:03:07.408Z,14.18
2018-08-10T02:05:41.950Z,14.16
2018-08-10T02:08:16.765Z,14.17
2018-08-10T02:10:51.245Z,14.20
2018-08-10T02:13:25.998Z,14.11
2018-08-10T02:16:00.598Z,13.98
2018-08-10T02:18:35.265Z,14.07
2018-08-10T02:21:09.892Z,14.03
2018-08-10T02:23:44.309Z,14.08
2018-08-10T02:26:19.216Z,14.10
2018-08-10T02:28:53.698Z,14.00
2018-08-10T02:31:28.438Z,14.00
2018-08-10T02:34:03.077Z,13.93
2018-08-10T02:36:37.759Z,13.98
2018-08-10T02:39:13.104Z,14.09
2018-08-10T02:41:47.760Z,14.01
2018-08-10T02:44:29.294Z,13.96
2018-08-10T02:47:03.661Z,13.89
2018-08-10T02:49:38.098Z,13.87
2018-08-10T02:52:12.807Z,13.85
2018-08-10T02:54:48.353Z,13.92
2018-08-10T02:57:22.911Z,13.88
2018-08-10T02:59:57.587Z,13.82
2018-08-10T03:02:32.173Z,13.76
2018-08-10T03:05:07.312Z,13.81
2018-08-10T03:07:42.197Z,13.82
2018-08-10T03:10:16.621Z,13.82
2018-08-10T03:12:51.184Z,13.86
2018-08-10T03:15:25.899Z,13.86
2018-08-10T03:18:00.665Z,13.90
2018-08-10T03:20:35.364Z,13.74
2018-08-10T03:23:10.022Z,13.74
2018-08-10T03:25:44.513Z,13.64
2018-08-10T03:28:18.934Z,13.66
2018-08-10T03:30:53.280Z,13.69
2018-08-10T03:33:27.700Z,13.60
2018-08-10T03:36:02.317Z,13.60
2018-08-10T03:38:36.785Z,13.59
2018-08-10T03:41:11.277Z,13.66
2018-08-10T03:43:45.933Z,13.62
2018-08-10T03:46:20.516Z,13.63
2018-08-10T03:48:55.557Z,13.61
2018-08-10T03:51:30.057Z,13.58
2018-08-10T03:54:04.885Z,13.64
2018-08-10T03:56:39.409Z,13.71
2018-08-10T03:59:13.920Z,13.67
2018-08-10T04:01:48.596Z,13.60
2018-08-10T04:04:23.567Z,13.55
2018-08-10T04:06:57.960Z,13.48
2018-08-10T04:09:32.541Z,13.51
2018-08-10T04:12:07.356Z,13.46
2018-08-10T04:14:41.853Z,13.44
2018-08-10T04:17:23.981Z,13.38
2018-08-10T04:19:58.458Z,13.39
2018-08-10T04:22:32.928Z,13.39
2018-08-10T04:25:07.454Z,13.42
2018-08-10T04:27:41.908Z,13.46
2018-08-10T04:30:16.492Z,13.47
2018-08-10T04:32:51.065Z,13.46
2018-08-10T04:35:25.652Z,13.45
2018-08-10T04:38:00.044Z,13.39
2018-08-10T04:40:34.536Z,13.37
2018-08-10T04:43:09.061Z,13.31
2018-08-10T04:45:43.529Z,13.29
2018-08-10T04:48:17.993Z,13.29
2018-08-10T04:50:52.472Z,13.33
2018-08-10T04:53:30.904Z,13.36
2018-08-10T04:56:18.172Z,13.42
2018-08-10T04:58:52.818Z,13.39
2018-08-10T05:01:27.446Z,13.53
2018-08-10T05:04:02.128Z,13.55
2018-08-10T05:09:43.294Z,13.94
2018-08-10T05:12:17.956Z,13.86
2018-08-10T05:14:52.484Z,13.92
2018-08-10T05:17:26.977Z,13.87
2018-08-10T05:20:01.389Z,14.03
2018-08-10T05:22:35.939Z,14.08
2018-08-10T05:25:10.361Z,14.12
2018-08-10T05:27:44.851Z,14.13
2018-08-10T05:30:19.537Z,14.22
2018-08-10T05:32:53.892Z,14.37
2018-08-10T05:35:28.371Z,14.31
2018-08-10T05:38:03.061Z,14.36
2018-08-10T05:40:37.585Z,14.41
2018-08-10T05:43:12.096Z,14.43
2018-08-10T05:45:46.449Z,14.68
2018-08-10T05:48:20.957Z,14.69
2018-08-10T05:50:55.576Z,14.62
2018-08-10T05:53:30.334Z,14.72
2018-08-10T05:56:05.056Z,14.74
2018-08-10T05:58:39.900Z,14.76
2018-08-10T06:01:14.201Z,15.15
2018-08-10T06:03:48.690Z,15.05
2018-08-10T06:06:23.158Z,15.05
2018-08-10T06:08:57.927Z,15.23
2018-08-10T06:11:32.499Z,15.38
2018-08-10T06:14:07.013Z,16.64
2018-08-10T06:16:41.422Z,17.67
2018-08-10T06:19:16.083Z,18.19
2018-08-10T06:21:50.681Z,19.54
2018-08-10T06:24:25.218Z,20.66
2018-08-10T06:27:00.060Z,19.36
2018-08-10T06:29:35.452Z,20.82
2018-08-10T06:32:09.985Z,22.88
2018-08-10T06:34:44.636Z,24.81
2018-08-10T06:37:19.282Z,25.80
2018-08-10T06:39:53.984Z,21.69
2018-08-10T06:42:28.307Z,21.25
2018-08-10T06:45:02.831Z,20.05
2018-08-10T06:47:37.759Z,18.39
2018-08-10T06:50:12.413Z,17.90
2018-08-10T06:52:46.836Z,16.87
2018-08-10T06:55:21.386Z,16.85
2018-08-10T06:57:55.865Z,16.52
2018-08-10T07:00:30.343Z,16.67
2018-08-10T07:03:04.943Z,16.63
2018-08-10T07:05:39.664Z,16.87
2018-08-10T07:08:14.444Z,17.07
2018-08-10T07:10:49.013Z,17.24
2018-08-10T07:13:23.681Z,17.02
2018-08-10T07:15:57.956Z,17.13
2018-08-10T07:18:32.384Z,17.03
2018-08-10T07:21:07.118Z,17.04
2018-08-10T07:23:42.113Z,17.15
2018-08-10T07:26:17.028Z,17.28
2018-08-10T07:28:51.793Z,16.99
2018-08-10T07:31:26.305Z,16.87
2018-08-10T07:34:00.932Z,17.34
2018-08-10T07:36:35.739Z,17.00
2018-08-10T07:39:11.809Z,16.59
2018-08-10T07:41:46.640Z,18.95
2018-08-10T07:44:21.279Z,21.90
2018-08-10T07:46:55.792Z,23.71
2018-08-10T07:49:30.300Z,24.30
2018-08-10T07:52:04.885Z,24.24
2018-08-10T07:54:39.465Z,22.20
2018-08-10T07:57:14.105Z,20.45
2018-08-10T07:59:48.820Z,19.44
2018-08-10T08:02:23.478Z,20.07
2018-08-10T08:04:58.269Z,20.99
2018-08-10T08:07:32.823Z,18.83
2018-08-10T08:10:07.538Z,20.96
2018-08-10T08:12:42.021Z,22.42
2018-08-10T08:15:16.517Z,24.76
2018-08-10T08:17:51.008Z,27.13
2018-08-10T08:20:25.364Z,27.54
2018-08-10T08:23:00.941Z,28.17
2018-08-10T08:25:35.944Z,27.75
2018-08-10T08:28:10.501Z,27.83
2018-08-10T08:30:45.128Z,28.43
2018-08-10T08:33:19.864Z,27.09
2018-08-10T08:35:55.114Z,28.56
2018-08-10T08:38:41.040Z,29.44
2018-08-10T08:41:15.760Z,26.86
2018-08-10T08:46:06.729Z,26.98
2018-08-10T08:48:45.524Z,26.74
2018-08-10T08:51:25.428Z,26.34
2018-08-10T08:54:11.229Z,28.03
2018-08-10T08:56:45.820Z,30.87
2018-08-10T08:59:20.296Z,29.48
2018-08-10T09:01:55.021Z,28.49
2018-08-10T09:04:44.112Z,27.94
2018-08-10T09:07:19.043Z,31.01
2018-08-10T09:09:53.719Z,29.26
2018-08-10T09:12:28.476Z,29.46
2018-08-10T09:15:05.958Z,32.02
2018-08-10T09:17:40.507Z,28.49
2018-08-10T09:20:15.109Z,24.76
2018-08-10T09:22:49.500Z,24.22
2018-08-10T09:25:23.993Z,24.95
2018-08-10T09:27:58.533Z,25.38
2018-08-10T09:30:33.105Z,27.32
2018-08-10T09:33:08.205Z,29.62
2018-08-10T09:35:42.736Z,25.76
2018-08-10T09:38:17.877Z,25.84
2018-08-10T09:40:52.488Z,24.07
2018-08-10T09:43:27.134Z,22.42
2018-08-10T09:46:01.605Z,24.53
2018-08-10T09:48:36.161Z,26.67
2018-08-10T09:51:10.548Z,29.99
2018-08-10T09:53:45.320Z,28.70
2018-08-10T09:56:19.881Z,29.00
2018-08-10T09:58:54.426Z,29.74
2018-08-10T10:01:32.965Z,29.88
2018-08-10T10:04:07.589Z,30.33
2018-08-10T10:06:42.497Z,27.40
2018-08-10T10:09:31.877Z,28.53
2018-08-10T10:12:10.445Z,30.91
2018-08-10T10:15:14.088Z,30.28
2018-08-10T10:17:48.822Z,29.04
2018-08-10T10:20:23.132Z,28.31
2018-08-10T10:22:57.755Z,27.21
2018-08-10T10:25:31.976Z,26.31
2018-08-10T10:28:06.856Z,25.90
2018-08-10T10:30:41.176Z,26.07
2018-08-10T10:33:15.949Z,24.99
2018-08-10T10:35:50.584Z,24.34
2018-08-10T10:38:25.123Z,24.76
2018-08-10T10:40:59.776Z,23.87
2018-08-10T10:43:34.437Z,24.68
2018-08-10T10:46:09.185Z,26.84
2018-08-10T10:48:43.721Z,28.24
2018-08-10T10:51:18.379Z,29.25
2018-08-10T10:53:52.901Z,28.90
2018-08-10T10:56:28.059Z,31.74
2018-08-10T10:59:02.846Z,29.54
2018-08-10T11:01:37.412Z,28.66
2018-08-10T11:04:11.776Z,25.92
2018-08-10T11:06:46.294Z,24.84
2018-08-10T11:09:20.721Z,25.05
2018-08-10T11:11:55.273Z,26.31
2018-08-10T11:14:29.693Z,27.64
2018-08-10T11:17:04.254Z,25.52
2018-08-10T11:19:38.776Z,24.43
2018-08-10T11:22:13.268Z,23.99
2018-08-10T11:24:48.432Z,26.00
2018-08-10T11:27:22.910Z,25.88
2018-08-10T11:29:57.565Z,25.69
2018-08-10T11:32:32.096Z,25.01
2018-08-10T11:35:07.322Z,23.66
2018-08-10T11:37:41.992Z,23.52
2018-08-10T11:40:16.573Z,22.42
2018-08-10T11:43:09.598Z,22.16
2018-08-10T11:45:44.104Z,21.34
2018-08-10T11:48:18.707Z,21.23
2018-08-10T11:50:53.329Z,22.08
2018-08-10T11:53:27.945Z,22.60
2018-08-10T11:56:02.425Z,22.59
2018-08-10T11:58:37.201Z,22.00
2018-08-10T12:01:11.672Z,21.88
2018-08-10T12:03:46.957Z,21.99
2018-08-10T12:06:21.572Z,22.30
2018-08-10T12:08:56.289Z,22.17
2018-08-10T12:11:30.852Z,22.31
2018-08-10T12:14:05.439Z,21.73
2018-08-10T12:16:40.407Z,21.21
2018-08-10T12:19:14.947Z,21.85
2018-08-10T12:21:49.329Z,21.94
2018-08-10T12:24:24.004Z,22.00
2018-08-10T12:26:59.017Z,22.09
2018-08-10T12:29:33.688Z,22.39
2018-08-10T12:32:08.417Z,22.89
2018-08-10T12:34:43.012Z,23.22
2018-08-10T12:37:17.728Z,23.58
2018-08-10T12:39:52.321Z,23.29
2018-08-10T12:42:27.309Z,23.06
2018-08-10T12:45:01.949Z,22.98
2018-08-10T12:47:36.881Z,22.35
2018-08-10T12:50:11.520Z,22.09
2018-08-10T12:52:46.329Z,22.51
2018-08-10T12:55:21.189Z,22.71
2018-08-10T12:57:55.739Z,23.00
2018-08-10T13:00:30.219Z,22.89
2018-08-10T13:03:05.173Z,22.97
2018-08-10T13:05:39.842Z,23.37
2018-08-10T13:08:14.346Z,23.02
2018-08-10T13:10:49.052Z,23.02
2018-08-10T13:13:23.702Z,22.85
2018-08-10T13:15:58.415Z,22.67
2018-08-10T13:18:33.150Z,22.65
2018-08-10T13:21:07.706Z,22.53
2018-08-10T13:23:42.364Z,22.77
2018-08-10T13:26:16.958Z,22.92
2018-08-10T13:28:51.463Z,22.88
2018-08-10T13:31:26.397Z,22.96
2018-08-10T13:34:00.881Z,23.19
2018-08-10T13:36:35.460Z,23.05
2018-08-10T13:39:11.772Z,23.14
2018-08-10T13:41:46.269Z,23.03
2018-08-10T13:44:20.996Z,22.95
2018-08-10T13:46:55.714Z,23.23
2018-08-10T13:49:30.694Z,23.33
2018-08-10T13:52:05.235Z,23.19
2018-08-10T13:54:39.805Z,23.26
2018-08-10T13:57:14.320Z,23.43
2018-08-10T13:59:48.904Z,23.55
2018-08-10T14:02:23.301Z,23.36
2018-08-10T14:04:57.973Z,22.79
2018-08-10T14:07:32.425Z,22.99
2018-08-10T14:10:06.945Z,23.33
2018-08-10T14:12:41.767Z,23.20
2018-08-10T14:15:16.265Z,23.38
2018-08-10T14:17:50.709Z,23.48
2018-08-10T14:20:25.260Z,23.64
2018-08-10T14:22:59.945Z,23.54
2018-08-10T14:25:34.478Z,23.74
2018-08-10T14:28:09.105Z,23.85
2018-08-10T14:30:44.019Z,24.37
2018-08-10T14:33:18.890Z,24.51
2018-08-10T14:35:53.463Z,25.32
2018-08-10T14:38:28.116Z,26.27
2018-08-10T14:41:02.790Z,24.81
2018-08-10T14:43:37.313Z,26.42
2018-08-10T14:46:11.946Z,26.64
2018-08-10T14:48:46.702Z,27.77
2018-08-10T14:51:21.432Z,28.09
2018-08-10T14:53:56.121Z,25.72
2018-08-10T14:56:30.611Z,25.77
2018-08-10T14:59:05.208Z,27.46
2018-08-10T15:01:39.877Z,28.09
2018-08-10T15:04:14.439Z,29.08
2018-08-10T15:06:48.984Z,29.71
2018-08-10T15:09:23.716Z,30.70
2018-08-10T15:11:58.368Z,31.20
2018-08-10T15:14:33.061Z,29.44
2018-08-10T15:17:07.691Z,29.95
2018-08-10T15:19:42.265Z,30.07
2018-08-10T15:22:16.975Z,28.99
2018-08-10T15:24:52.102Z,29.96
2018-08-10T15:27:26.639Z,29.44
2018-08-10T15:30:01.308Z,29.56
2018-08-10T15:32:35.876Z,29.22
2018-08-10T15:35:11.340Z,29.59
2018-08-10T15:37:46.360Z,30.13
2018-08-10T15:40:20.918Z,29.62
2018-08-10T15:42:55.377Z,29.28
2018-08-10T15:45:29.837Z,28.94
2018-08-10T15:48:04.473Z,29.28
2018-08-10T15:50:38.933Z,28.40
2018-08-10T15:53:13.536Z,27.30
2018-08-10T15:55:48.221Z,26.51
2018-08-10T15:58:22.808Z,26.50
2018-08-10T16:00:57.668Z,25.39
2018-08-10T16:03:32.156Z,25.06
2018-08-10T16:06:06.820Z,24.76
2018-08-10T16:08:41.452Z,24.06
2018-08-10T16:11:16.497Z,23.85
2018-08-10T16:13:51.149Z,23.81
2018-08-10T16:16:25.992Z,23.25
2018-08-10T16:19:00.493Z,23.04
2018-08-10T16:21:35.161Z,22.79
2018-08-10T16:24:09.727Z,22.46
2018-08-10T16:26:44.302Z,22.38
2018-08-10T16:29:18.939Z,22.45
2018-08-10T16:31:53.673Z,22.33
2018-08-10T16:34:28.437Z,22.33
2018-08-10T16:37:03.300Z,22.49
2018-08-10T16:39:37.874Z,22.37
2018-08-10T16:42:12.498Z,22.35
2018-08-10T16:44:47.165Z,22.28
2018-08-10T16:47:21.714Z,22.20
2018-08-10T16:49:56.285Z,22.30
2018-08-10T16:52:31.252Z,22.17
2018-08-10T16:55:18.295Z,22.34
2018-08-10T16:57:52.909Z,22.29
2018-08-10T17:00:27.609Z,22.19
2018-08-10T17:03:02.043Z,22.17
2018-08-10T17:05:36.566Z,22.28
2018-08-10T17:08:11.166Z,22.32
2018-08-10T17:10:45.885Z,22.46
2018-08-10T17:13:20.474Z,22.20
2018-08-10T17:21:53.596Z,22.01
2018-08-10T17:27:27.309Z,21.90
2018-08-10T17:30:01.994Z,21.92
2018-08-10T17:32:36.534Z,21.83
2018-08-10T17:35:12.665Z,21.69
2018-08-10T17:37:47.544Z,21.54
2018-08-10T17:40:22.065Z,21.54
2018-08-10T17:42:56.648Z,21.33
2018-08-10T17:45:31.130Z,21.14
2018-08-10T17:48:05.677Z,21.07
2018-08-10T17:50:40.489Z,20.99
2018-08-10T17:53:15.233Z,21.01
2018-08-10T17:55:49.933Z,20.94
2018-08-10T17:58:24.378Z,20.91
2018-08-10T18:00:59.041Z,20.87
2018-08-10T18:06:40.453Z,20.65
2018-08-10T18:09:15.005Z,20.45
2018-08-10T18:11:49.921Z,20.45
2018-08-10T18:14:24.434Z,20.32
2018-08-10T18:16:59.048Z,20.28
2018-08-10T18:19:33.761Z,20.20
2018-08-10T18:22:08.659Z,20.24
2018-08-10T18:24:43.396Z,20.14
2018-08-10T18:27:17.976Z,20.09
2018-08-10T18:29:52.451Z,20.12
2018-08-10T18:32:27.038Z,20.09
2018-08-10T18:35:01.939Z,20.10
2018-08-10T18:40:45.099Z,19.97
2018-08-10T18:43:19.695Z,19.95
2018-08-10T18:45:54.265Z,19.89
2018-08-10T18:48:29.202Z,19.80
2018-08-10T18:51:03.664Z,19.71
2018-08-10T18:53:38.237Z,19.65
2018-08-10T18:56:13.101Z,19.60
2018-08-10T18:58:47.713Z,19.52
2018-08-10T19:01:22.270Z,19.43
2018-08-10T19:03:56.976Z,19.45
2018-08-10T19:06:31.456Z,19.39
2018-08-10T19:09:08.328Z,19.33
2018-08-10T19:11:43.208Z,19.27
2018-08-10T19:14:17.629Z,19.13
2018-08-10T19:16:52.148Z,19.12
2018-08-10T19:19:26.606Z,19.09
2018-08-10T19:22:01.153Z,19.03
2018-08-10T19:24:35.977Z,18.95
2018-08-10T19:27:10.605Z,18.83
2018-08-10T19:29:45.541Z,18.76
2018-08-10T19:32:19.995Z,18.69
2018-08-10T19:34:54.461Z,18.63
2018-08-10T19:37:29.119Z,18.61
2018-08-10T19:40:03.601Z,18.63
2018-08-10T19:42:38.259Z,18.55
2018-08-10T19:45:13.862Z,18.53
2018-08-10T19:47:48.547Z,18.43
2018-08-10T19:50:24.233Z,18.38
2018-08-10T19:52:58.746Z,18.25
2018-08-10T19:55:33.376Z,18.23
2018-08-10T19:58:07.981Z,18.22
2018-08-10T20:00:42.516Z,18.25
2018-08-10T20:03:17.104Z,18.20
2018-08-10T20:05:51.697Z,18.10
2018-08-10T20:08:26.400Z,18.06
2018-08-10T20:11:01.288Z,18.11
2018-08-10T20:13:35.925Z,18.06
2018-08-10T20:16:10.664Z,18.05
2018-08-10T20:18:45.479Z,17.95
2018-08-10T20:21:20.013Z,17.91
2018-08-10T20:23:54.794Z,17.85
2018-08-10T20:26:29.451Z,17.88
2018-08-10T20:29:04.091Z,17.83
2018-08-10T20:31:38.696Z,17.78
2018-08-10T20:37:12.766Z,17.73
2018-08-10T20:39:47.520Z,17.64
2018-08-10T20:42:22.277Z,17.65
2018-08-10T20:44:56.988Z,17.61
2018-08-10T20:47:31.590Z,17.62
2018-08-10T20:50:09.209Z,17.54
2018-08-10T20:52:44.325Z,17.51
2018-08-10T20:55:18.965Z,17.49
2018-08-10T20:57:53.577Z,17.47
2018-08-10T21:00:28.245Z,17.39
2018-08-10T21:03:03.004Z,17.38
2018-08-10T21:05:37.569Z,17.39
2018-08-10T21:08:12.242Z,17.44
2018-08-10T21:10:46.707Z,17.54
2018-08-10T21:13:21.212Z,17.49
2018-08-10T21:15:55.914Z,17.50
2018-08-10T21:18:30.626Z,17.43
2018-08-10T21:21:05.526Z,17.41
2018-08-10T21:23:40.160Z,17.38
2018-08-10T21:26:14.853Z,17.28
2018-08-10T21:28:49.401Z,17.27
2018-08-10T21:31:24.041Z,17.27
2018-08-10T21:33:58.724Z,17.19
2018-08-10T21:36:33.272Z,17.21
2018-08-10T21:39:09.876Z,17.13
2018-08-10T21:41:44.300Z,17.10
2018-08-10T21:44:18.993Z,17.04
2018-08-10T21:46:53.944Z,17.04
2018-08-10T21:49:28.512Z,16.97
2018-08-10T21:52:03.077Z,16.97
2018-08-10T21:54:37.801Z,16.92
2018-08-10T21:57:12.357Z,16.90
2018-08-10T22:02:52.008Z,16.86
2018-08-10T22:05:38.072Z,16.84
2018-08-10T22:08:12.557Z,16.79
2018-08-10T22:10:47.198Z,16.86
2018-08-10T22:13:27.253Z,16.89
2018-08-10T22:16:07.149Z,16.86
2018-08-10T22:18:47.048Z,16.89
2018-08-10T22:21:21.679Z,16.84
2018-08-10T22:23:56.332Z,16.89
2018-08-10T22:26:31.180Z,16.79
2018-08-10T22:29:05.848Z,16.84
2018-08-10T22:31:40.646Z,16.80
2018-08-10T22:34:15.196Z,16.75
2018-08-10T22:36:49.794Z,16.73
2018-08-10T22:39:24.489Z,16.71
2018-08-10T22:41:59.297Z,16.71
2018-08-10T22:44:34.210Z,16.68
2018-08-10T22:47:08.628Z,16.68
2018-08-10T22:49:43.187Z,16.76
2018-08-10T22:52:17.778Z,16.75
2018-08-10T22:54:52.213Z,16.76
2018-08-10T22:57:26.937Z,16.71
2018-08-10T23:00:01.447Z,16.65
2018-08-10T23:02:36.229Z,16.59
2018-08-10T23:05:11.132Z,16.57
2018-08-10T23:07:45.880Z,16.53
2018-08-10T23:10:20.620Z,16.46
2018-08-10T23:12:55.137Z,16.47
2018-08-10T23:15:29.596Z,16.46
2018-08-10T23:18:04.145Z,16.43
2018-08-10T23:20:38.739Z,16.51
2018-08-10T23:23:13.381Z,16.44
2018-08-10T23:25:48.041Z,16.38
2018-08-10T23:28:22.692Z,16.26
2018-08-10T23:30:57.221Z,16.27
2018-08-10T23:33:31.709Z,16.23
2018-08-10T23:36:06.247Z,16.30
2018-08-10T23:38:47.205Z,16.29
2018-08-10T23:41:21.948Z,16.25
2018-08-10T23:43:56.419Z,16.28
2018-08-10T23:46:31.408Z,16.26
2018-08-10T23:49:05.982Z,16.21
2018-08-10T23:51:40.698Z,16.24
2018-08-10T23:54:15.332Z,16.24
2018-08-10T23:56:49.900Z,16.21
2018-08-10T23:59:24.428Z,16.26
